createdAt,value
2018-03-21T00:02:22.858Z,2.30
2018-03-21T00:04:51.109Z,2.10
2018-03-21T00:07:19.406Z,2.00
2018-03-21T00:09:47.645Z,2.10
2018-03-21T00:12:17.035Z,2.20
2018-03-21T00:14:46.331Z,2.10
2018-03-21T00:17:14.784Z,2.10
2018-03-21T00:19:43.029Z,2.10
2018-03-21T00:22:11.313Z,2.10
2018-03-21T00:24:39.559Z,2.20
2018-03-21T00:27:07.819Z,2.20
2018-03-21T00:29:36.089Z,2.10
2018-03-21T00:32:04.330Z,2.10
2018-03-21T00:34:32.601Z,2.00
2018-03-21T00:37:00.879Z,1.90
2018-03-21T00:39:29.126Z,1.90
2018-03-21T00:41:57.406Z,1.90
2018-03-21T00:44:25.650Z,1.90
2018-03-21T00:46:53.930Z,1.90
2018-03-21T00:49:22.166Z,1.80
2018-03-21T00:51:49.674Z,1.80
2018-03-21T00:54:17.961Z,1.80
2018-03-21T00:56:47.230Z,1.80
2018-03-21T00:59:16.489Z,1.80
2018-03-21T01:01:44.742Z,1.80
2018-03-21T01:04:13.018Z,1.70
2018-03-21T01:06:41.257Z,1.60
2018-03-21T01:09:09.540Z,1.60
2018-03-21T01:11:37.787Z,1.60
2018-03-21T01:14:06.036Z,1.60
2018-03-21T01:16:34.314Z,1.70
2018-03-21T01:19:02.586Z,1.60
2018-03-21T01:21:30.870Z,1.60
2018-03-21T01:23:59.127Z,1.50
2018-03-21T01:26:27.402Z,1.50
2018-03-21T01:28:55.658Z,1.50
2018-03-21T01:31:23.934Z,1.50
2018-03-21T01:33:52.181Z,1.40
2018-03-21T01:36:20.474Z,1.30
2018-03-21T01:38:48.750Z,1.30
2018-03-21T01:41:16.996Z,1.30
2018-03-21T01:43:46.140Z,1.20
2018-03-21T01:46:15.078Z,1.20
2018-03-21T01:48:43.345Z,1.30
2018-03-21T01:51:11.629Z,1.30
2018-03-21T01:53:39.878Z,1.40
2018-03-21T01:56:08.153Z,1.30
2018-03-21T01:58:36.407Z,1.20
2018-03-21T02:01:04.702Z,1.10
2018-03-21T02:03:32.950Z,1.00
2018-03-21T02:06:01.226Z,1.10
2018-03-21T02:08:29.475Z,1.00
2018-03-21T02:10:57.754Z,1.10
2018-03-21T02:13:25.229Z,1.00
2018-03-21T02:15:53.521Z,0.90
2018-03-21T02:18:21.774Z,0.90
2018-03-21T02:20:50.017Z,0.90
2018-03-21T02:23:18.294Z,0.90
2018-03-21T02:25:47.497Z,0.90
2018-03-21T02:28:17.189Z,0.90
2018-03-21T02:30:45.452Z,0.80
2018-03-21T02:33:12.970Z,0.80
2018-03-21T02:35:41.255Z,0.70
2018-03-21T02:38:09.514Z,0.80
2018-03-21T02:40:37.816Z,0.80
2018-03-21T02:43:06.073Z,0.80
2018-03-21T02:45:34.327Z,0.70
2018-03-21T02:48:02.607Z,0.70
2018-03-21T02:50:30.860Z,0.60
2018-03-21T02:52:58.391Z,0.60
2018-03-21T02:55:26.682Z,0.70
2018-03-21T02:57:54.949Z,0.60
2018-03-21T03:00:23.248Z,0.70
2018-03-21T03:02:51.529Z,0.60
2018-03-21T03:05:19.795Z,0.60
2018-03-21T03:07:48.180Z,0.60
2018-03-21T03:10:17.238Z,0.50
2018-03-21T03:12:45.495Z,0.50
2018-03-21T03:15:13.769Z,0.60
2018-03-21T03:17:42.014Z,0.50
2018-03-21T03:20:10.301Z,0.60
2018-03-21T03:22:37.797Z,0.50
2018-03-21T03:25:05.314Z,0.50
2018-03-21T03:27:33.566Z,0.50
2018-03-21T03:30:01.857Z,0.70
2018-03-21T03:32:30.130Z,0.60
2018-03-21T03:34:58.395Z,0.50
2018-03-21T03:37:26.688Z,0.30
2018-03-21T03:39:54.970Z,0.30
2018-03-21T03:42:22.455Z,0.30
2018-03-21T03:44:50.743Z,0.30
2018-03-21T03:47:18.994Z,0.20
2018-03-21T03:49:47.278Z,0.20
2018-03-21T03:52:15.557Z,0.00
2018-03-21T03:54:43.811Z,-0.10
2018-03-21T03:57:12.104Z,-0.10
2018-03-21T03:59:40.353Z,0.00
2018-03-21T04:02:08.643Z,0.10
2018-03-21T04:04:36.943Z,0.20
2018-03-21T04:07:05.200Z,0.30
2018-03-21T04:09:33.456Z,0.30
2018-03-21T04:12:01.756Z,0.60
2018-03-21T04:14:30.012Z,0.60
2018-03-21T04:16:58.287Z,0.60
2018-03-21T04:19:26.600Z,0.70
2018-03-21T04:21:54.858Z,0.70
2018-03-21T04:24:23.127Z,0.70
2018-03-21T04:26:51.400Z,0.70
2018-03-21T04:29:19.667Z,0.80
2018-03-21T04:31:47.969Z,0.90
2018-03-21T04:34:17.425Z,1.00
2018-03-21T04:36:45.716Z,1.00
2018-03-21T04:39:13.971Z,1.00
2018-03-21T04:41:42.254Z,1.10
2018-03-21T04:44:10.506Z,1.00
2018-03-21T04:46:38.774Z,1.20
2018-03-21T04:49:07.069Z,1.20
2018-03-21T04:51:35.322Z,1.10
2018-03-21T04:54:03.602Z,1.10
2018-03-21T04:56:31.907Z,1.20
2018-03-21T04:59:00.163Z,1.30
2018-03-21T05:01:27.654Z,1.20
2018-03-21T05:03:55.952Z,1.30
2018-03-21T05:06:24.206Z,1.30
2018-03-21T05:08:52.477Z,1.30
2018-03-21T05:11:20.003Z,1.20
2018-03-21T05:13:48.255Z,1.40
2018-03-21T05:16:16.541Z,1.40
2018-03-21T05:18:45.970Z,1.50
2018-03-21T05:21:15.811Z,1.60
2018-03-21T05:23:44.075Z,1.60
2018-03-21T05:26:12.352Z,1.60
2018-03-21T05:28:40.663Z,1.50
2018-03-21T05:31:08.950Z,1.60
2018-03-21T05:33:37.215Z,1.50
2018-03-21T05:36:05.549Z,1.50
2018-03-21T05:38:33.807Z,1.50
2018-03-21T05:41:02.071Z,1.50
2018-03-21T05:43:30.362Z,1.60
2018-03-21T05:45:58.629Z,1.70
2018-03-21T05:48:26.923Z,1.70
2018-03-21T05:50:55.183Z,1.80
2018-03-21T05:53:23.475Z,1.80
2018-03-21T05:55:51.762Z,1.80
2018-03-21T05:58:20.038Z,1.80
2018-03-21T06:00:48.323Z,1.70
2018-03-21T06:03:16.581Z,1.60
2018-03-21T06:05:46.128Z,1.60
2018-03-21T06:08:15.191Z,1.60
2018-03-21T06:10:43.475Z,1.60
2018-03-21T06:13:11.766Z,1.70
2018-03-21T06:15:39.259Z,1.70
2018-03-21T06:18:07.530Z,1.90
2018-03-21T06:20:35.822Z,1.80
2018-03-21T06:23:04.091Z,1.80
2018-03-21T06:25:32.391Z,1.80
2018-03-21T06:28:00.672Z,1.90
2018-03-21T06:30:28.940Z,2.00
2018-03-21T06:32:57.234Z,2.10
2018-03-21T06:35:25.495Z,2.00
2018-03-21T06:37:53.799Z,2.10
2018-03-21T06:40:22.101Z,2.10
2018-03-21T06:42:50.353Z,2.10
2018-03-21T06:45:18.643Z,2.00
2018-03-21T06:47:46.895Z,1.90
2018-03-21T06:50:16.412Z,2.00
2018-03-21T06:52:44.740Z,2.00
2018-03-21T06:55:13.047Z,2.00
2018-03-21T06:57:41.311Z,1.90
2018-03-21T07:00:09.585Z,1.90
2018-03-21T07:02:37.911Z,1.80
2018-03-21T07:05:07.066Z,1.80
2018-03-21T07:07:35.326Z,2.00
2018-03-21T07:10:03.687Z,2.00
2018-03-21T07:12:31.959Z,1.80
2018-03-21T07:15:15.487Z,2.00
2018-03-21T07:17:43.780Z,1.70
2018-03-21T07:20:12.066Z,1.70
2018-03-21T07:22:39.592Z,1.70
2018-03-21T07:25:07.095Z,1.60
2018-03-21T07:27:35.385Z,1.50
2018-03-21T07:30:03.643Z,1.50
2018-03-21T07:32:31.918Z,1.50
2018-03-21T07:35:03.166Z,1.50
2018-03-21T07:37:31.459Z,1.70
2018-03-21T07:39:59.746Z,1.60
2018-03-21T07:42:28.008Z,1.60
2018-03-21T07:44:56.301Z,1.60
2018-03-21T07:47:24.558Z,1.30
2018-03-21T07:49:52.852Z,1.30
2018-03-21T07:52:21.141Z,1.20
2018-03-21T07:54:50.363Z,1.30
2018-03-21T07:57:18.621Z,1.40
2018-03-21T07:59:46.879Z,1.40
2018-03-21T08:02:15.817Z,1.30
2018-03-21T08:04:44.100Z,1.60
2018-03-21T08:07:11.619Z,1.60
2018-03-21T08:09:39.887Z,1.60
2018-03-21T08:12:08.179Z,1.60
2018-03-21T08:14:36.434Z,1.70
2018-03-21T08:17:04.724Z,1.60
2018-03-21T08:19:33.001Z,1.70
2018-03-21T08:22:00.520Z,1.70
2018-03-21T08:24:28.805Z,1.60
2018-03-21T08:26:57.062Z,1.50
2018-03-21T08:29:25.348Z,1.60
2018-03-21T08:31:53.607Z,1.70
2018-03-21T08:34:21.896Z,1.70
2018-03-21T08:36:50.188Z,1.70
2018-03-21T08:39:18.461Z,1.80
2018-03-21T08:41:46.754Z,1.80
2018-03-21T08:44:16.074Z,1.90
2018-03-21T08:46:45.637Z,1.70
2018-03-21T08:49:13.935Z,1.80
2018-03-21T08:51:41.468Z,1.80
2018-03-21T08:54:09.736Z,2.00
2018-03-21T08:56:38.050Z,2.00
2018-03-21T08:59:06.315Z,2.00
2018-03-21T09:01:33.820Z,2.00
2018-03-21T09:04:02.123Z,2.10
2018-03-21T09:06:30.383Z,2.00
2018-03-21T09:08:58.647Z,1.90
2018-03-21T09:11:26.938Z,2.00
2018-03-21T09:13:55.202Z,2.00
2018-03-21T09:16:23.494Z,1.90
2018-03-21T09:18:51.765Z,1.90
2018-03-21T09:21:20.071Z,2.10
2018-03-21T09:23:48.330Z,2.00
2018-03-21T09:26:16.597Z,2.10
2018-03-21T09:28:46.185Z,2.00
2018-03-21T09:31:15.296Z,2.10
2018-03-21T09:33:43.576Z,2.10
2018-03-21T09:36:11.876Z,2.20
2018-03-21T09:38:40.140Z,2.30
2018-03-21T09:41:08.463Z,2.30
2018-03-21T09:43:36.720Z,2.50
2018-03-21T09:46:04.982Z,2.60
2018-03-21T09:48:33.264Z,2.60
2018-03-21T09:51:01.538Z,2.70
2018-03-21T09:53:29.840Z,2.80
2018-03-21T09:55:58.156Z,2.80
2018-03-21T09:58:26.430Z,2.80
2018-03-21T10:00:54.698Z,2.90
2018-03-21T10:03:22.987Z,3.00
2018-03-21T10:05:51.255Z,3.10
2018-03-21T10:08:19.523Z,3.20
2018-03-21T10:10:47.818Z,3.30
2018-03-21T10:13:16.942Z,3.30
2018-03-21T10:15:46.431Z,3.30
2018-03-21T10:18:14.724Z,3.40
2018-03-21T10:20:42.993Z,3.50
2018-03-21T10:23:11.283Z,3.60
2018-03-21T10:25:39.543Z,3.70
2018-03-21T10:28:07.836Z,3.80
2018-03-21T10:30:36.103Z,3.70
2018-03-21T10:33:04.376Z,3.70
2018-03-21T10:35:32.658Z,3.60
2018-03-21T10:38:00.949Z,3.80
2018-03-21T10:40:29.203Z,3.80
2018-03-21T10:42:57.500Z,3.80
2018-03-21T10:45:25.786Z,3.80
2018-03-21T10:47:54.053Z,3.90
2018-03-21T10:50:22.324Z,4.10
2018-03-21T10:52:50.624Z,4.20
2018-03-21T10:55:18.883Z,4.20
2018-03-21T10:57:52.372Z,4.20
2018-03-21T11:00:20.642Z,4.50
2018-03-21T11:02:54.512Z,4.70
2018-03-21T11:05:22.771Z,4.80
2018-03-21T11:07:50.293Z,4.80
2018-03-21T11:10:18.559Z,4.90
2018-03-21T11:12:47.260Z,4.90
2018-03-21T11:15:15.515Z,5.10
2018-03-21T11:17:43.803Z,5.10
2018-03-21T11:20:12.058Z,5.10
2018-03-21T11:22:40.321Z,5.10
2018-03-21T11:25:08.577Z,5.10
2018-03-21T11:27:36.115Z,5.10
2018-03-21T11:30:04.402Z,5.20
2018-03-21T11:32:32.650Z,5.20
2018-03-21T11:35:00.912Z,5.00
2018-03-21T11:37:29.199Z,5.10
2018-03-21T11:39:57.446Z,5.00
2018-03-21T11:42:25.739Z,5.00
2018-03-21T11:44:54.027Z,5.10
2018-03-21T11:47:22.282Z,5.10
2018-03-21T11:49:50.560Z,5.10
2018-03-21T11:52:18.811Z,5.20
2018-03-21T11:54:47.099Z,5.40
2018-03-21T11:57:16.439Z,5.60
2018-03-21T11:59:44.695Z,5.70
2018-03-21T12:02:12.956Z,5.90
2018-03-21T12:04:41.248Z,6.10
2018-03-21T12:07:08.740Z,6.00
2018-03-21T12:09:37.031Z,6.40
2018-03-21T12:12:05.314Z,6.30
2018-03-21T12:14:33.580Z,6.50
2018-03-21T12:17:01.898Z,6.50
2018-03-21T12:19:30.147Z,6.50
2018-03-21T12:21:58.410Z,6.60
2018-03-21T12:24:26.674Z,6.80
2018-03-21T12:26:54.919Z,7.00
2018-03-21T12:29:23.203Z,6.90
2018-03-21T12:31:50.699Z,6.90
2018-03-21T12:34:18.979Z,6.80
2018-03-21T12:36:47.227Z,6.80
2018-03-21T12:39:17.330Z,6.70
2018-03-21T12:41:45.574Z,6.70
2018-03-21T12:44:13.860Z,6.50
2018-03-21T12:46:42.115Z,6.50
2018-03-21T12:49:10.432Z,6.40
2018-03-21T12:51:38.695Z,6.30
2018-03-21T12:54:06.969Z,6.10
2018-03-21T12:56:35.247Z,6.00
2018-03-21T12:59:03.504Z,5.90
2018-03-21T13:01:31.836Z,5.90
2018-03-21T13:04:00.056Z,6.00
2018-03-21T13:06:28.338Z,6.10
2018-03-21T13:08:56.605Z,6.00
2018-03-21T13:11:24.859Z,6.00
2018-03-21T13:13:52.384Z,5.90
2018-03-21T13:16:20.638Z,6.10
2018-03-21T13:18:48.895Z,6.30
2018-03-21T13:21:17.195Z,6.30
2018-03-21T13:23:45.460Z,6.40
2018-03-21T13:26:13.714Z,6.60
2018-03-21T13:28:42.003Z,6.70
2018-03-21T13:31:10.274Z,6.80
2018-03-21T13:33:38.521Z,6.90
2018-03-21T13:36:06.798Z,6.90
2018-03-21T13:38:35.057Z,6.90
2018-03-21T13:41:02.579Z,6.90
2018-03-21T13:43:30.839Z,7.00
2018-03-21T13:45:59.127Z,7.00
2018-03-21T13:48:27.382Z,6.90
2018-03-21T13:50:55.666Z,6.80
2018-03-21T13:53:23.919Z,6.70
2018-03-21T13:55:52.202Z,6.60
2018-03-21T13:58:20.450Z,6.60
2018-03-21T14:00:48.731Z,6.50
2018-03-21T14:03:17.032Z,6.60
2018-03-21T14:05:46.171Z,6.60
2018-03-21T14:08:15.095Z,6.40
2018-03-21T14:10:43.378Z,6.40
2018-03-21T14:13:11.668Z,6.30
2018-03-21T14:15:39.916Z,6.30
2018-03-21T14:18:08.202Z,6.30
2018-03-21T14:20:36.454Z,6.50
2018-03-21T14:23:04.707Z,6.50
2018-03-21T14:25:33.007Z,6.50
2018-03-21T14:28:01.299Z,6.30
2018-03-21T14:30:29.560Z,6.50
2018-03-21T14:32:57.815Z,6.50
2018-03-21T14:35:26.078Z,6.60
2018-03-21T14:37:54.330Z,6.60
2018-03-21T14:40:22.623Z,6.60
2018-03-21T14:42:50.874Z,6.60
2018-03-21T14:45:19.131Z,6.50
2018-03-21T14:47:47.420Z,6.60
2018-03-21T14:50:16.332Z,6.50
2018-03-21T14:52:44.587Z,6.50
2018-03-21T14:55:12.878Z,6.60
2018-03-21T14:57:41.137Z,6.60
2018-03-21T15:00:09.423Z,6.70
2018-03-21T15:02:37.683Z,6.50
2018-03-21T15:05:05.975Z,6.50
2018-03-21T15:07:34.268Z,6.50
2018-03-21T15:10:02.529Z,6.50
2018-03-21T15:12:30.832Z,6.50
2018-03-21T15:14:58.323Z,6.50
2018-03-21T15:17:26.607Z,6.80
2018-03-21T15:19:54.887Z,6.80
2018-03-21T15:22:23.170Z,6.70
2018-03-21T15:24:54.850Z,6.70
2018-03-21T15:27:23.167Z,6.70
2018-03-21T15:29:51.420Z,6.70
2018-03-21T15:32:19.707Z,6.80
2018-03-21T15:34:47.973Z,6.80
2018-03-21T15:37:17.250Z,6.80
2018-03-21T15:39:45.545Z,6.80
2018-03-21T15:42:13.812Z,6.70
2018-03-21T15:44:42.104Z,6.50
2018-03-21T15:47:10.360Z,6.60
2018-03-21T15:49:38.637Z,6.60
2018-03-21T15:52:06.890Z,6.70
2018-03-21T15:54:35.180Z,6.70
2018-03-21T15:57:03.477Z,6.60
2018-03-21T15:59:31.767Z,6.70
2018-03-21T16:02:00.054Z,6.60
2018-03-21T16:04:28.304Z,6.60
2018-03-21T16:06:56.602Z,6.70
2018-03-21T16:09:24.850Z,6.80
2018-03-21T16:11:53.143Z,6.70
2018-03-21T16:14:21.407Z,6.70
2018-03-21T16:16:49.691Z,6.60
2018-03-21T16:19:17.975Z,6.60
2018-03-21T16:21:47.563Z,6.60
2018-03-21T16:24:16.435Z,6.60
2018-03-21T16:26:44.690Z,6.50
2018-03-21T16:29:12.944Z,6.40
2018-03-21T16:31:41.234Z,6.40
2018-03-21T16:34:09.484Z,6.50
2018-03-21T16:36:37.792Z,6.50
2018-03-21T16:39:06.050Z,6.40
2018-03-21T16:41:34.303Z,6.30
2018-03-21T16:44:02.600Z,6.30
2018-03-21T16:46:30.886Z,6.30
2018-03-21T16:48:59.175Z,6.20
2018-03-21T16:51:27.431Z,6.20
2018-03-21T16:53:55.727Z,6.10
2018-03-21T16:56:23.983Z,6.10
2018-03-21T16:58:52.275Z,6.10
2018-03-21T17:01:20.528Z,6.20
2018-03-21T17:03:48.820Z,6.30
2018-03-21T17:06:17.114Z,6.20
2018-03-21T17:08:46.298Z,6.20
2018-03-21T17:11:14.557Z,6.10
2018-03-21T17:13:42.844Z,6.20
2018-03-21T17:16:11.097Z,6.10
2018-03-21T17:18:39.383Z,6.10
2018-03-21T17:21:07.644Z,6.10
2018-03-21T17:23:35.903Z,6.10
2018-03-21T17:26:04.185Z,6.10
2018-03-21T17:28:32.439Z,6.10
2018-03-21T17:30:59.960Z,6.10
2018-03-21T17:33:28.238Z,6.10
2018-03-21T17:35:56.493Z,6.10
2018-03-21T17:38:24.778Z,6.00
2018-03-21T17:40:53.031Z,6.00
2018-03-21T17:43:21.314Z,6.00
2018-03-21T17:45:49.619Z,5.90
2018-03-21T17:48:17.874Z,5.90
2018-03-21T17:50:47.395Z,5.90
2018-03-21T17:53:16.538Z,5.90
2018-03-21T17:55:46.261Z,6.00
2018-03-21T17:58:14.561Z,6.00
2018-03-21T18:00:42.847Z,6.00
2018-03-21T18:03:11.127Z,6.00
2018-03-21T18:05:39.374Z,5.90
2018-03-21T18:08:07.655Z,5.90
2018-03-21T18:10:35.934Z,5.80
2018-03-21T18:13:04.227Z,5.80
2018-03-21T18:15:32.487Z,5.80
2018-03-21T18:18:00.755Z,5.80
2018-03-21T18:20:29.044Z,5.80
2018-03-21T18:22:57.323Z,5.80
2018-03-21T18:25:25.584Z,5.80
2018-03-21T18:27:53.870Z,5.70
2018-03-21T18:30:22.123Z,5.70
2018-03-21T18:32:50.386Z,5.60
2018-03-21T18:35:18.671Z,5.60
2018-03-21T18:37:46.952Z,5.60
2018-03-21T18:40:16.444Z,5.50
2018-03-21T18:42:44.731Z,5.50
2018-03-21T18:45:12.222Z,5.50
2018-03-21T18:47:40.502Z,5.50
2018-03-21T18:50:08.782Z,5.50
2018-03-21T18:52:37.070Z,5.40
2018-03-21T18:55:05.371Z,5.30
2018-03-21T18:57:32.846Z,5.40
2018-03-21T19:00:01.117Z,5.30
2018-03-21T19:02:28.639Z,5.30
2018-03-21T19:04:56.894Z,5.20
2018-03-21T19:07:25.180Z,5.10
2018-03-21T19:09:53.470Z,5.00
2018-03-21T19:12:21.718Z,5.00
2018-03-21T19:14:50.908Z,5.10
2018-03-21T19:17:19.173Z,5.00
2018-03-21T19:19:47.457Z,5.00
2018-03-21T19:22:16.354Z,4.90
2018-03-21T19:24:44.643Z,4.90
2018-03-21T19:27:12.890Z,4.90
2018-03-21T19:29:40.414Z,4.90
2018-03-21T19:32:08.711Z,4.80
2018-03-21T19:34:37.005Z,4.80
2018-03-21T19:37:05.254Z,4.90
2018-03-21T19:39:33.542Z,4.90
2018-03-21T19:42:01.803Z,4.90
2018-03-21T19:44:30.054Z,4.80
2018-03-21T19:46:58.344Z,4.90
2018-03-21T19:49:26.607Z,4.90
2018-03-21T19:51:54.895Z,4.90
2018-03-21T19:54:23.191Z,4.90
2018-03-21T19:56:51.447Z,4.90
2018-03-21T19:59:19.711Z,4.90
2018-03-21T20:01:47.237Z,4.90
2018-03-21T20:04:15.491Z,4.80
2018-03-21T20:06:43.783Z,4.70
2018-03-21T20:09:12.044Z,4.80
2018-03-21T20:11:40.354Z,4.80
2018-03-21T20:14:08.614Z,4.80
2018-03-21T20:16:36.907Z,4.80
2018-03-21T20:19:05.163Z,4.90
2018-03-21T20:21:33.454Z,4.80
2018-03-21T20:24:01.720Z,4.70
2018-03-21T20:26:30.004Z,4.70
2018-03-21T20:28:58.268Z,4.60
2018-03-21T20:31:26.564Z,4.50
2018-03-21T20:33:54.831Z,4.40
2018-03-21T20:36:23.119Z,4.40
2018-03-21T20:38:51.384Z,4.40
2018-03-21T20:41:19.647Z,4.40
2018-03-21T20:43:47.935Z,4.40
2018-03-21T20:46:16.872Z,4.40
2018-03-21T20:48:46.832Z,4.40
2018-03-21T20:51:15.565Z,4.30
2018-03-21T20:53:43.827Z,4.30
2018-03-21T20:56:11.356Z,4.30
2018-03-21T20:58:39.611Z,4.30
2018-03-21T21:01:07.904Z,4.30
2018-03-21T21:03:36.158Z,4.30
2018-03-21T21:06:04.448Z,4.30
2018-03-21T21:08:32.708Z,4.40
2018-03-21T21:11:01.026Z,4.30
2018-03-21T21:13:29.282Z,4.30
2018-03-21T21:15:57.535Z,4.30
2018-03-21T21:18:25.822Z,4.30
2018-03-21T21:20:54.115Z,4.30
2018-03-21T21:23:22.373Z,4.30
2018-03-21T21:25:49.864Z,4.30
2018-03-21T21:28:18.564Z,4.30
2018-03-21T21:30:48.195Z,4.30
2018-03-21T21:33:17.808Z,4.30
2018-03-21T21:35:47.034Z,4.30
2018-03-21T21:38:16.310Z,4.30
2018-03-21T21:40:44.571Z,4.30
2018-03-21T21:43:12.856Z,4.30
2018-03-21T21:45:41.119Z,4.30
2018-03-21T21:48:09.420Z,4.30
2018-03-21T21:50:37.675Z,4.30
2018-03-21T21:53:05.942Z,4.30
2018-03-21T21:55:34.223Z,4.30
2018-03-21T21:58:02.477Z,4.30
2018-03-21T22:00:30.770Z,4.20
2018-03-21T22:02:59.041Z,4.20
2018-03-21T22:05:27.294Z,4.20
2018-03-21T22:07:55.595Z,4.20
2018-03-21T22:10:23.877Z,4.20
2018-03-21T22:12:52.164Z,4.20
2018-03-21T22:15:20.415Z,4.10
2018-03-21T22:17:48.691Z,4.10
2018-03-21T22:20:16.947Z,4.20
2018-03-21T22:22:46.107Z,4.10
2018-03-21T22:25:15.076Z,4.10
2018-03-21T22:27:43.330Z,4.10
2018-03-21T22:30:11.611Z,4.00
2018-03-21T22:32:39.895Z,4.10
2018-03-21T22:35:08.156Z,4.10
2018-03-21T22:37:36.431Z,4.10
2018-03-21T22:40:04.718Z,4.10
2018-03-21T22:42:32.978Z,4.10
2018-03-21T22:45:01.263Z,4.20
2018-03-21T22:47:29.520Z,4.20
2018-03-21T22:49:57.806Z,4.10
2018-03-21T22:52:26.073Z,4.10
2018-03-21T22:54:54.327Z,4.00
2018-03-21T22:57:22.611Z,4.00
2018-03-21T22:59:50.867Z,4.00
2018-03-21T23:02:19.153Z,3.90
2018-03-21T23:04:47.446Z,3.90
2018-03-21T23:07:16.735Z,4.00
2018-03-21T23:09:46.050Z,4.10
2018-03-21T23:12:15.984Z,4.00
2018-03-21T23:14:44.263Z,4.00
2018-03-21T23:17:12.582Z,4.00
2018-03-21T23:19:40.866Z,4.00
2018-03-21T23:22:08.350Z,4.00
2018-03-21T23:24:36.650Z,3.80
2018-03-21T23:27:04.908Z,3.80
2018-03-21T23:29:33.166Z,3.80
2018-03-21T23:32:01.450Z,3.90
2018-03-21T23:34:29.712Z,3.90
2018-03-21T23:36:58.031Z,3.90
2018-03-21T23:39:26.300Z,3.80
2018-03-21T23:41:54.565Z,3.80
2018-03-21T23:44:22.861Z,3.90
2018-03-21T23:46:51.137Z,3.90
2018-03-21T23:49:19.442Z,3.90
2018-03-21T23:51:46.937Z,3.90
2018-03-21T23:54:15.931Z,4.00
2018-03-21T23:56:44.231Z,4.00
2018-03-21T23:59:12.497Z,4.00
